sensor_id;sensor_type;location;lat;lon;timestamp;P1;durP1;ratioP1;P2;durP2;ratioP2
59189;SDS011;50749;51.636;4.948;2022-12-16T00:02:19;12.05;;;6.70;;
59189;SDS011;50749;51.636;4.948;2022-12-16T00:04:45;10.90;;;6.05;;
59189;SDS011;50749;51.636;4.948;2022-12-16T00:07:10;10.52;;;6.82;;
59189;SDS011;50749;51.636;4.948;2022-12-16T00:09:36;10.15;;;6.30;;
59189;SDS011;50749;51.636;4.948;2022-12-16T00:12:02;9.82;;;6.82;;
59189;SDS011;50749;51.636;4.948;2022-12-16T00:14:28;10.02;;;6.07;;
59189;SDS011;50749;51.636;4.948;2022-12-16T00:16:54;9.85;;;6.85;;
59189;SDS011;50749;51.636;4.948;2022-12-16T00:19:20;10.95;;;6.65;;
59189;SDS011;50749;51.636;4.948;2022-12-16T00:21:45;9.68;;;6.22;;
59189;SDS011;50749;51.636;4.948;2022-12-16T00:24:11;8.30;;;6.00;;
59189;SDS011;50749;51.636;4.948;2022-12-16T00:26:37;9.50;;;6.63;;
59189;SDS011;50749;51.636;4.948;2022-12-16T00:29:03;11.23;;;6.30;;
59189;SDS011;50749;51.636;4.948;2022-12-16T00:31:31;8.85;;;5.95;;
59189;SDS011;50749;51.636;4.948;2022-12-16T00:33:57;10.82;;;6.70;;
59189;SDS011;50749;51.636;4.948;2022-12-16T00:36:23;9.32;;;6.60;;
59189;SDS011;50749;51.636;4.948;2022-12-16T00:38:50;14.13;;;6.65;;
59189;SDS011;50749;51.636;4.948;2022-12-16T00:41:16;10.43;;;6.38;;
59189;SDS011;50749;51.636;4.948;2022-12-16T00:43:42;9.07;;;6.45;;
59189;SDS011;50749;51.636;4.948;2022-12-16T00:46:08;10.52;;;6.13;;
59189;SDS011;50749;51.636;4.948;2022-12-16T00:48:34;11.10;;;6.40;;
59189;SDS011;50749;51.636;4.948;2022-12-16T00:51:00;9.15;;;5.90;;
59189;SDS011;50749;51.636;4.948;2022-12-16T00:53:26;10.70;;;6.38;;
59189;SDS011;50749;51.636;4.948;2022-12-16T00:56:02;9.45;;;6.25;;
59189;SDS011;50749;51.636;4.948;2022-12-16T00:58:33;9.18;;;6.07;;
59189;SDS011;50749;51.636;4.948;2022-12-16T01:00:58;9.98;;;6.72;;
59189;SDS011;50749;51.636;4.948;2022-12-16T01:03:25;10.13;;;6.38;;
59189;SDS011;50749;51.636;4.948;2022-12-16T01:05:50;10.85;;;6.47;;
59189;SDS011;50749;51.636;4.948;2022-12-16T01:08:16;9.25;;;6.13;;
59189;SDS011;50749;51.636;4.948;2022-12-16T01:10:42;10.40;;;6.38;;
59189;SDS011;50749;51.636;4.948;2022-12-16T01:13:14;10.80;;;7.15;;
59189;SDS011;50749;51.636;4.948;2022-12-16T01:15:40;9.50;;;6.22;;
59189;SDS011;50749;51.636;4.948;2022-12-16T01:18:06;10.18;;;6.35;;
59189;SDS011;50749;51.636;4.948;2022-12-16T01:20:32;10.25;;;6.20;;
59189;SDS011;50749;51.636;4.948;2022-12-16T01:22:59;9.93;;;6.13;;
59189;SDS011;50749;51.636;4.948;2022-12-16T01:25:25;10.98;;;6.30;;
59189;SDS011;50749;51.636;4.948;2022-12-16T01:27:51;10.50;;;6.25;;
59189;SDS011;50749;51.636;4.948;2022-12-16T01:30:16;13.77;;;7.28;;
59189;SDS011;50749;51.636;4.948;2022-12-16T01:32:42;9.85;;;6.13;;
59189;SDS011;50749;51.636;4.948;2022-12-16T01:35:09;10.45;;;6.65;;
59189;SDS011;50749;51.636;4.948;2022-12-16T01:37:38;14.25;;;7.32;;
59189;SDS011;50749;51.636;4.948;2022-12-16T01:40:04;9.57;;;5.93;;
59189;SDS011;50749;51.636;4.948;2022-12-16T01:42:31;10.40;;;6.05;;
59189;SDS011;50749;51.636;4.948;2022-12-16T01:45:21;12.65;;;7.30;;
59189;SDS011;50749;51.636;4.948;2022-12-16T01:51:17;9.25;;;5.75;;
59189;SDS011;50749;51.636;4.948;2022-12-16T01:53:47;13.23;;;6.60;;
59189;SDS011;50749;51.636;4.948;2022-12-16T01:56:14;9.95;;;6.20;;
59189;SDS011;50749;51.636;4.948;2022-12-16T01:58:44;12.70;;;6.47;;
59189;SDS011;50749;51.636;4.948;2022-12-16T02:01:11;9.13;;;6.53;;
59189;SDS011;50749;51.636;4.948;2022-12-16T02:03:39;8.73;;;5.97;;
59189;SDS011;50749;51.636;4.948;2022-12-16T02:06:06;9.77;;;6.30;;
59189;SDS011;50749;51.636;4.948;2022-12-16T02:08:32;11.15;;;6.82;;
59189;SDS011;50749;51.636;4.948;2022-12-16T02:16:49;10.05;;;6.53;;
59189;SDS011;50749;51.636;4.948;2022-12-16T02:22:19;9.15;;;6.63;;
59189;SDS011;50749;51.636;4.948;2022-12-16T02:28:04;10.32;;;6.13;;
59189;SDS011;50749;51.636;4.948;2022-12-16T02:41:46;8.55;;;5.68;;
59189;SDS011;50749;51.636;4.948;2022-12-16T02:44:19;9.82;;;6.38;;
59189;SDS011;50749;51.636;4.948;2022-12-16T02:46:53;8.75;;;6.07;;
59189;SDS011;50749;51.636;4.948;2022-12-16T02:51:46;9.15;;;5.95;;
59189;SDS011;50749;51.636;4.948;2022-12-16T02:54:12;9.25;;;5.75;;
59189;SDS011;50749;51.636;4.948;2022-12-16T03:02:15;9.23;;;6.32;;
59189;SDS011;50749;51.636;4.948;2022-12-16T03:07:19;9.40;;;5.93;;
59189;SDS011;50749;51.636;4.948;2022-12-16T03:09:47;10.38;;;6.63;;
59189;SDS011;50749;51.636;4.948;2022-12-16T03:12:16;10.23;;;6.65;;
59189;SDS011;50749;51.636;4.948;2022-12-16T03:14:45;11.18;;;6.25;;
59189;SDS011;50749;51.636;4.948;2022-12-16T03:17:14;11.80;;;6.00;;
59189;SDS011;50749;51.636;4.948;2022-12-16T03:19:44;9.75;;;6.63;;
59189;SDS011;50749;51.636;4.948;2022-12-16T03:22:16;7.45;;;5.53;;
59189;SDS011;50749;51.636;4.948;2022-12-16T03:24:45;10.18;;;6.03;;
59189;SDS011;50749;51.636;4.948;2022-12-16T03:32:44;8.57;;;5.78;;
59189;SDS011;50749;51.636;4.948;2022-12-16T03:35:59;10.85;;;6.60;;
59189;SDS011;50749;51.636;4.948;2022-12-16T03:38:10;13.23;;;6.70;;
59189;SDS011;50749;51.636;4.948;2022-12-16T03:40:39;9.57;;;6.03;;
59189;SDS011;50749;51.636;4.948;2022-12-16T03:43:07;10.18;;;6.20;;
59189;SDS011;50749;51.636;4.948;2022-12-16T03:45:35;8.80;;;5.60;;
59189;SDS011;50749;51.636;4.948;2022-12-16T03:48:05;9.43;;;5.60;;
59189;SDS011;50749;51.636;4.948;2022-12-16T03:50:33;10.20;;;5.18;;
59189;SDS011;50749;51.636;4.948;2022-12-16T03:53:00;8.25;;;5.25;;
59189;SDS011;50749;51.636;4.948;2022-12-16T03:55:26;10.00;;;5.60;;
59189;SDS011;50749;51.636;4.948;2022-12-16T03:57:52;7.88;;;5.30;;
59189;SDS011;50749;51.636;4.948;2022-12-16T04:00:18;10.45;;;5.90;;
59189;SDS011;50749;51.636;4.948;2022-12-16T04:02:45;10.05;;;4.93;;
59189;SDS011;50749;51.636;4.948;2022-12-16T04:05:11;8.65;;;5.25;;
59189;SDS011;50749;51.636;4.948;2022-12-16T04:07:38;7.97;;;5.10;;
59189;SDS011;50749;51.636;4.948;2022-12-16T04:10:04;10.00;;;5.93;;
59189;SDS011;50749;51.636;4.948;2022-12-16T04:12:30;7.57;;;5.15;;
59189;SDS011;50749;51.636;4.948;2022-12-16T04:15:15;8.20;;;5.07;;
59189;SDS011;50749;51.636;4.948;2022-12-16T04:18:04;8.27;;;5.10;;
59189;SDS011;50749;51.636;4.948;2022-12-16T04:20:52;8.57;;;5.00;;
59189;SDS011;50749;51.636;4.948;2022-12-16T04:23:42;7.00;;;4.50;;
59189;SDS011;50749;51.636;4.948;2022-12-16T04:26:31;6.32;;;4.38;;
59189;SDS011;50749;51.636;4.948;2022-12-16T04:29:17;7.20;;;4.40;;
59189;SDS011;50749;51.636;4.948;2022-12-16T04:31:42;6.15;;;4.20;;
59189;SDS011;50749;51.636;4.948;2022-12-16T04:34:09;7.05;;;3.83;;
59189;SDS011;50749;51.636;4.948;2022-12-16T04:36:49;6.03;;;4.07;;
59189;SDS011;50749;51.636;4.948;2022-12-16T04:39:35;7.45;;;4.10;;
59189;SDS011;50749;51.636;4.948;2022-12-16T04:42:19;5.60;;;3.72;;
59189;SDS011;50749;51.636;4.948;2022-12-16T04:45:04;5.82;;;2.90;;
59189;SDS011;50749;51.636;4.948;2022-12-16T04:47:49;5.53;;;3.17;;
59189;SDS011;50749;51.636;4.948;2022-12-16T04:50:34;5.10;;;3.05;;
59189;SDS011;50749;51.636;4.948;2022-12-16T04:53:18;4.60;;;3.00;;
59189;SDS011;50749;51.636;4.948;2022-12-16T04:56:03;5.03;;;3.00;;
59189;SDS011;50749;51.636;4.948;2022-12-16T04:59:07;7.78;;;3.17;;
59189;SDS011;50749;51.636;4.948;2022-12-16T05:01:52;4.57;;;2.80;;
59189;SDS011;50749;51.636;4.948;2022-12-16T05:04:36;4.60;;;2.78;;
59189;SDS011;50749;51.636;4.948;2022-12-16T05:07:21;5.05;;;2.92;;
59189;SDS011;50749;51.636;4.948;2022-12-16T05:10:05;5.68;;;2.42;;
59189;SDS011;50749;51.636;4.948;2022-12-16T05:12:51;4.88;;;2.50;;
59189;SDS011;50749;51.636;4.948;2022-12-16T05:15:36;3.63;;;2.35;;
59189;SDS011;50749;51.636;4.948;2022-12-16T05:18:21;5.75;;;2.45;;
59189;SDS011;50749;51.636;4.948;2022-12-16T05:21:06;4.68;;;2.60;;
59189;SDS011;50749;51.636;4.948;2022-12-16T05:23:50;4.00;;;2.33;;
59189;SDS011;50749;51.636;4.948;2022-12-16T05:26:34;5.25;;;2.05;;
59189;SDS011;50749;51.636;4.948;2022-12-16T05:29:19;4.35;;;2.50;;
59189;SDS011;50749;51.636;4.948;2022-12-16T05:32:03;4.45;;;2.33;;
59189;SDS011;50749;51.636;4.948;2022-12-16T05:34:48;3.80;;;2.13;;
59189;SDS011;50749;51.636;4.948;2022-12-16T05:37:32;3.80;;;1.88;;
59189;SDS011;50749;51.636;4.948;2022-12-16T05:40:17;3.22;;;2.13;;
59189;SDS011;50749;51.636;4.948;2022-12-16T05:43:01;4.00;;;2.20;;
59189;SDS011;50749;51.636;4.948;2022-12-16T05:45:45;2.40;;;1.80;;
59189;SDS011;50749;51.636;4.948;2022-12-16T05:48:29;4.50;;;1.85;;
59189;SDS011;50749;51.636;4.948;2022-12-16T05:51:14;3.58;;;1.60;;
59189;SDS011;50749;51.636;4.948;2022-12-16T05:53:58;4.07;;;1.67;;
59189;SDS011;50749;51.636;4.948;2022-12-16T05:56:42;4.25;;;2.10;;
59189;SDS011;50749;51.636;4.948;2022-12-16T05:59:27;4.38;;;1.83;;
59189;SDS011;50749;51.636;4.948;2022-12-16T06:02:11;2.58;;;1.58;;
59189;SDS011;50749;51.636;4.948;2022-12-16T06:04:56;3.05;;;1.98;;
59189;SDS011;50749;51.636;4.948;2022-12-16T06:07:40;2.38;;;1.63;;
59189;SDS011;50749;51.636;4.948;2022-12-16T06:10:25;3.42;;;1.77;;
59189;SDS011;50749;51.636;4.948;2022-12-16T06:13:09;5.00;;;1.70;;
59189;SDS011;50749;51.636;4.948;2022-12-16T06:15:53;10.40;;;1.92;;
59189;SDS011;50749;51.636;4.948;2022-12-16T06:18:39;3.22;;;1.45;;
59189;SDS011;50749;51.636;4.948;2022-12-16T06:21:23;3.05;;;1.60;;
59189;SDS011;50749;51.636;4.948;2022-12-16T06:24:08;3.63;;;1.65;;
59189;SDS011;50749;51.636;4.948;2022-12-16T06:26:52;3.45;;;1.40;;
59189;SDS011;50749;51.636;4.948;2022-12-16T06:29:37;3.70;;;1.38;;
59189;SDS011;50749;51.636;4.948;2022-12-16T06:32:21;3.58;;;1.95;;
59189;SDS011;50749;51.636;4.948;2022-12-16T06:35:05;2.25;;;1.45;;
59189;SDS011;50749;51.636;4.948;2022-12-16T06:37:50;4.57;;;1.70;;
59189;SDS011;50749;51.636;4.948;2022-12-16T06:40:35;3.47;;;1.40;;
59189;SDS011;50749;51.636;4.948;2022-12-16T06:43:19;2.60;;;1.33;;
59189;SDS011;50749;51.636;4.948;2022-12-16T06:46:04;3.13;;;1.40;;
59189;SDS011;50749;51.636;4.948;2022-12-16T06:48:48;3.10;;;1.60;;
59189;SDS011;50749;51.636;4.948;2022-12-16T06:51:33;3.63;;;1.60;;
59189;SDS011;50749;51.636;4.948;2022-12-16T06:54:17;5.05;;;1.30;;
59189;SDS011;50749;51.636;4.948;2022-12-16T06:57:01;2.40;;;1.30;;
59189;SDS011;50749;51.636;4.948;2022-12-16T06:59:45;2.93;;;1.20;;
59189;SDS011;50749;51.636;4.948;2022-12-16T07:02:30;4.60;;;1.40;;
59189;SDS011;50749;51.636;4.948;2022-12-16T07:05:14;4.85;;;1.60;;
59189;SDS011;50749;51.636;4.948;2022-12-16T07:07:58;4.68;;;1.40;;
59189;SDS011;50749;51.636;4.948;2022-12-16T07:10:43;2.72;;;1.30;;
59189;SDS011;50749;51.636;4.948;2022-12-16T07:13:27;3.92;;;1.30;;
59189;SDS011;50749;51.636;4.948;2022-12-16T07:16:11;2.72;;;1.23;;
59189;SDS011;50749;51.636;4.948;2022-12-16T07:18:55;2.17;;;1.40;;
59189;SDS011;50749;51.636;4.948;2022-12-16T07:21:39;3.33;;;1.33;;
59189;SDS011;50749;51.636;4.948;2022-12-16T07:24:24;2.88;;;1.50;;
59189;SDS011;50749;51.636;4.948;2022-12-16T07:27:08;6.03;;;1.37;;
59189;SDS011;50749;51.636;4.948;2022-12-16T07:29:53;5.55;;;1.42;;
59189;SDS011;50749;51.636;4.948;2022-12-16T07:32:37;9.73;;;1.40;;
59189;SDS011;50749;51.636;4.948;2022-12-16T07:35:22;2.85;;;1.38;;
59189;SDS011;50749;51.636;4.948;2022-12-16T07:38:06;3.40;;;1.17;;
59189;SDS011;50749;51.636;4.948;2022-12-16T07:40:51;4.85;;;1.48;;
59189;SDS011;50749;51.636;4.948;2022-12-16T07:43:35;2.15;;;1.25;;
59189;SDS011;50749;51.636;4.948;2022-12-16T07:46:19;2.63;;;1.50;;
59189;SDS011;50749;51.636;4.948;2022-12-16T07:49:05;4.73;;;1.30;;
59189;SDS011;50749;51.636;4.948;2022-12-16T07:51:50;3.90;;;1.00;;
59189;SDS011;50749;51.636;4.948;2022-12-16T07:54:34;3.63;;;1.35;;
59189;SDS011;50749;51.636;4.948;2022-12-16T07:57:20;2.47;;;1.38;;
59189;SDS011;50749;51.636;4.948;2022-12-16T08:00:04;4.90;;;1.58;;
59189;SDS011;50749;51.636;4.948;2022-12-16T08:02:53;2.83;;;1.40;;
59189;SDS011;50749;51.636;4.948;2022-12-16T08:05:38;5.60;;;1.63;;
59189;SDS011;50749;51.636;4.948;2022-12-16T08:08:23;4.50;;;1.48;;
59189;SDS011;50749;51.636;4.948;2022-12-16T08:11:07;3.20;;;1.73;;
59189;SDS011;50749;51.636;4.948;2022-12-16T08:13:52;2.25;;;1.38;;
59189;SDS011;50749;51.636;4.948;2022-12-16T08:16:36;2.00;;;1.30;;
59189;SDS011;50749;51.636;4.948;2022-12-16T08:19:21;3.70;;;1.67;;
59189;SDS011;50749;51.636;4.948;2022-12-16T08:22:06;2.80;;;1.30;;
59189;SDS011;50749;51.636;4.948;2022-12-16T08:24:51;3.05;;;1.23;;
59189;SDS011;50749;51.636;4.948;2022-12-16T08:27:36;2.25;;;1.30;;
59189;SDS011;50749;51.636;4.948;2022-12-16T08:30:20;2.15;;;1.40;;
59189;SDS011;50749;51.636;4.948;2022-12-16T08:33:04;2.80;;;1.30;;
59189;SDS011;50749;51.636;4.948;2022-12-16T08:35:49;4.60;;;1.38;;
59189;SDS011;50749;51.636;4.948;2022-12-16T08:38:33;2.65;;;1.27;;
59189;SDS011;50749;51.636;4.948;2022-12-16T08:41:18;2.22;;;1.50;;
59189;SDS011;50749;51.636;4.948;2022-12-16T08:44:02;4.72;;;1.60;;
59189;SDS011;50749;51.636;4.948;2022-12-16T08:46:47;3.58;;;1.70;;
59189;SDS011;50749;51.636;4.948;2022-12-16T08:49:31;2.53;;;1.23;;
59189;SDS011;50749;51.636;4.948;2022-12-16T08:52:16;5.95;;;1.42;;
59189;SDS011;50749;51.636;4.948;2022-12-16T08:55:00;4.25;;;1.80;;
59189;SDS011;50749;51.636;4.948;2022-12-16T08:57:54;4.15;;;1.20;;
59189;SDS011;50749;51.636;4.948;2022-12-16T09:00:38;2.60;;;1.35;;
59189;SDS011;50749;51.636;4.948;2022-12-16T09:03:23;2.38;;;1.17;;
59189;SDS011;50749;51.636;4.948;2022-12-16T09:06:07;3.10;;;1.63;;
59189;SDS011;50749;51.636;4.948;2022-12-16T09:08:52;2.78;;;1.13;;
59189;SDS011;50749;51.636;4.948;2022-12-16T09:11:36;2.70;;;1.48;;
59189;SDS011;50749;51.636;4.948;2022-12-16T09:14:20;2.72;;;1.50;;
59189;SDS011;50749;51.636;4.948;2022-12-16T09:17:04;2.47;;;1.20;;
59189;SDS011;50749;51.636;4.948;2022-12-16T09:19:49;3.28;;;1.10;;
59189;SDS011;50749;51.636;4.948;2022-12-16T09:22:33;5.30;;;1.50;;
59189;SDS011;50749;51.636;4.948;2022-12-16T09:25:17;3.57;;;1.20;;
59189;SDS011;50749;51.636;4.948;2022-12-16T09:28:01;2.65;;;1.63;;
59189;SDS011;50749;51.636;4.948;2022-12-16T09:30:46;3.33;;;1.20;;
59189;SDS011;50749;51.636;4.948;2022-12-16T09:33:31;2.90;;;1.10;;
59189;SDS011;50749;51.636;4.948;2022-12-16T09:36:15;2.00;;;1.10;;
59189;SDS011;50749;51.636;4.948;2022-12-16T09:38:59;2.22;;;1.02;;
59189;SDS011;50749;51.636;4.948;2022-12-16T09:41:45;3.57;;;1.43;;
59189;SDS011;50749;51.636;4.948;2022-12-16T09:45:00;3.60;;;1.88;;
59189;SDS011;50749;51.636;4.948;2022-12-16T09:48:01;1.95;;;1.08;;
59189;SDS011;50749;51.636;4.948;2022-12-16T09:50:54;2.63;;;1.25;;
59189;SDS011;50749;51.636;4.948;2022-12-16T09:53:41;2.20;;;1.20;;
59189;SDS011;50749;51.636;4.948;2022-12-16T09:56:29;1.60;;;1.10;;
59189;SDS011;50749;51.636;4.948;2022-12-16T09:59:21;2.72;;;1.45;;
59189;SDS011;50749;51.636;4.948;2022-12-16T10:02:10;2.55;;;1.25;;
59189;SDS011;50749;51.636;4.948;2022-12-16T10:04:56;2.00;;;1.05;;
59189;SDS011;50749;51.636;4.948;2022-12-16T10:07:41;1.52;;;0.95;;
59189;SDS011;50749;51.636;4.948;2022-12-16T10:10:34;3.33;;;1.08;;
59189;SDS011;50749;51.636;4.948;2022-12-16T10:13:47;2.13;;;0.90;;
59189;SDS011;50749;51.636;4.948;2022-12-16T10:16:45;3.08;;;1.33;;
59189;SDS011;50749;51.636;4.948;2022-12-16T10:22:41;1.73;;;1.10;;
59189;SDS011;50749;51.636;4.948;2022-12-16T10:28:51;2.90;;;1.23;;
59189;SDS011;50749;51.636;4.948;2022-12-16T10:31:42;2.80;;;1.23;;
59189;SDS011;50749;51.636;4.948;2022-12-16T10:34:30;2.70;;;1.07;;
59189;SDS011;50749;51.636;4.948;2022-12-16T10:37:28;2.72;;;1.42;;
59189;SDS011;50749;51.636;4.948;2022-12-16T10:40:24;3.55;;;1.17;;
59189;SDS011;50749;51.636;4.948;2022-12-16T10:43:17;2.03;;;1.10;;
59189;SDS011;50749;51.636;4.948;2022-12-16T10:46:06;2.17;;;1.00;;
59189;SDS011;50749;51.636;4.948;2022-12-16T10:48:58;2.45;;;1.42;;
59189;SDS011;50749;51.636;4.948;2022-12-16T10:51:42;3.30;;;1.15;;
59189;SDS011;50749;51.636;4.948;2022-12-16T10:54:40;2.13;;;1.20;;
59189;SDS011;50749;51.636;4.948;2022-12-16T10:57:35;1.60;;;1.00;;
59189;SDS011;50749;51.636;4.948;2022-12-16T11:03:25;4.45;;;1.23;;
59189;SDS011;50749;51.636;4.948;2022-12-16T11:15:18;6.50;;;1.30;;
59189;SDS011;50749;51.636;4.948;2022-12-16T11:18:11;2.50;;;0.93;;
59189;SDS011;50749;51.636;4.948;2022-12-16T11:21:05;3.88;;;1.40;;
59189;SDS011;50749;51.636;4.948;2022-12-16T11:24:03;2.65;;;1.40;;
59189;SDS011;50749;51.636;4.948;2022-12-16T11:27:00;3.53;;;0.95;;
59189;SDS011;50749;51.636;4.948;2022-12-16T11:29:50;2.80;;;1.00;;
59189;SDS011;50749;51.636;4.948;2022-12-16T11:32:41;2.63;;;1.30;;
59189;SDS011;50749;51.636;4.948;2022-12-16T11:35:32;2.53;;;1.10;;
59189;SDS011;50749;51.636;4.948;2022-12-16T11:38:43;2.65;;;1.00;;
59189;SDS011;50749;51.636;4.948;2022-12-16T11:41:43;2.65;;;1.25;;
59189;SDS011;50749;51.636;4.948;2022-12-16T11:44:34;4.10;;;0.98;;
59189;SDS011;50749;51.636;4.948;2022-12-16T11:50:15;2.15;;;1.05;;
59189;SDS011;50749;51.636;4.948;2022-12-16T11:53:01;4.07;;;1.30;;
59189;SDS011;50749;51.636;4.948;2022-12-16T11:55:53;7.32;;;1.73;;
59189;SDS011;50749;51.636;4.948;2022-12-16T11:58:43;4.82;;;1.02;;
59189;SDS011;50749;51.636;4.948;2022-12-16T12:01:34;3.25;;;1.25;;
59189;SDS011;50749;51.636;4.948;2022-12-16T12:04:24;2.17;;;0.98;;
59189;SDS011;50749;51.636;4.948;2022-12-16T12:07:25;5.85;;;1.48;;
59189;SDS011;50749;51.636;4.948;2022-12-16T12:10:37;5.00;;;1.10;;
59189;SDS011;50749;51.636;4.948;2022-12-16T12:20:14;6.78;;;1.40;;
59189;SDS011;50749;51.636;4.948;2022-12-16T12:23:01;2.42;;;0.85;;
59189;SDS011;50749;51.636;4.948;2022-12-16T12:26:07;8.57;;;1.85;;
59189;SDS011;50749;51.636;4.948;2022-12-16T12:41:32;3.67;;;1.20;;
59189;SDS011;50749;51.636;4.948;2022-12-16T12:44:39;5.00;;;1.30;;
59189;SDS011;50749;51.636;4.948;2022-12-16T12:47:38;2.92;;;1.10;;
59189;SDS011;50749;51.636;4.948;2022-12-16T12:50:38;6.38;;;1.02;;
59189;SDS011;50749;51.636;4.948;2022-12-16T12:56:50;4.47;;;1.60;;
59189;SDS011;50749;51.636;4.948;2022-12-16T12:59:45;6.10;;;1.83;;
59189;SDS011;50749;51.636;4.948;2022-12-16T13:02:49;11.25;;;1.67;;
59189;SDS011;50749;51.636;4.948;2022-12-16T13:05:56;5.25;;;1.40;;
59189;SDS011;50749;51.636;4.948;2022-12-16T13:08:45;9.88;;;1.80;;
59189;SDS011;50749;51.636;4.948;2022-12-16T13:11:39;8.23;;;2.22;;
59189;SDS011;50749;51.636;4.948;2022-12-16T13:15:01;5.28;;;1.17;;
59189;SDS011;50749;51.636;4.948;2022-12-16T13:20:45;7.30;;;1.40;;
59189;SDS011;50749;51.636;4.948;2022-12-16T13:23:38;3.72;;;1.35;;
59189;SDS011;50749;51.636;4.948;2022-12-16T13:26:27;5.75;;;1.40;;
59189;SDS011;50749;51.636;4.948;2022-12-16T13:32:01;3.53;;;1.33;;
59189;SDS011;50749;51.636;4.948;2022-12-16T13:35:19;10.65;;;1.55;;
59189;SDS011;50749;51.636;4.948;2022-12-16T13:38:17;4.07;;;0.93;;
59189;SDS011;50749;51.636;4.948;2022-12-16T13:41:05;3.15;;;1.08;;
59189;SDS011;50749;51.636;4.948;2022-12-16T13:44:11;4.32;;;1.00;;
59189;SDS011;50749;51.636;4.948;2022-12-16T13:46:56;7.43;;;1.15;;
59189;SDS011;50749;51.636;4.948;2022-12-16T13:49:48;2.88;;;1.48;;
59189;SDS011;50749;51.636;4.948;2022-12-16T13:55:28;7.00;;;1.20;;
59189;SDS011;50749;51.636;4.948;2022-12-16T14:01:17;3.97;;;0.90;;
59189;SDS011;50749;51.636;4.948;2022-12-16T14:04:07;5.07;;;1.38;;
59189;SDS011;50749;51.636;4.948;2022-12-16T14:06:54;4.32;;;1.13;;
59189;SDS011;50749;51.636;4.948;2022-12-16T14:09:46;4.80;;;1.08;;
59189;SDS011;50749;51.636;4.948;2022-12-16T14:15:47;2.05;;;0.90;;
59189;SDS011;50749;51.636;4.948;2022-12-16T14:18:40;5.38;;;0.77;;
59189;SDS011;50749;51.636;4.948;2022-12-16T14:21:50;2.92;;;0.80;;
59189;SDS011;50749;51.636;4.948;2022-12-16T14:24:41;4.07;;;0.98;;
59189;SDS011;50749;51.636;4.948;2022-12-16T14:27:26;4.25;;;0.88;;
59189;SDS011;50749;51.636;4.948;2022-12-16T14:30:15;2.13;;;0.73;;
59189;SDS011;50749;51.636;4.948;2022-12-16T14:39:11;2.85;;;0.90;;
59189;SDS011;50749;51.636;4.948;2022-12-16T14:42:23;2.03;;;1.02;;
59189;SDS011;50749;51.636;4.948;2022-12-16T14:51:23;1.45;;;0.70;;
59189;SDS011;50749;51.636;4.948;2022-12-16T14:57:14;1.95;;;0.75;;
59189;SDS011;50749;51.636;4.948;2022-12-16T15:02:53;5.80;;;0.80;;
59189;SDS011;50749;51.636;4.948;2022-12-16T15:05:40;2.65;;;0.63;;
59189;SDS011;50749;51.636;4.948;2022-12-16T15:08:28;4.00;;;1.00;;
59189;SDS011;50749;51.636;4.948;2022-12-16T15:11:18;1.15;;;0.60;;
59189;SDS011;50749;51.636;4.948;2022-12-16T15:14:05;4.75;;;0.82;;
59189;SDS011;50749;51.636;4.948;2022-12-16T15:16:55;1.20;;;0.70;;
59189;SDS011;50749;51.636;4.948;2022-12-16T15:19:47;2.45;;;0.98;;
59189;SDS011;50749;51.636;4.948;2022-12-16T15:22:34;1.75;;;1.00;;
59189;SDS011;50749;51.636;4.948;2022-12-16T15:25:22;1.75;;;0.85;;
59189;SDS011;50749;51.636;4.948;2022-12-16T15:31:32;2.25;;;1.00;;
59189;SDS011;50749;51.636;4.948;2022-12-16T15:37:02;2.08;;;1.15;;
59189;SDS011;50749;51.636;4.948;2022-12-16T15:39:54;2.15;;;0.85;;
59189;SDS011;50749;51.636;4.948;2022-12-16T15:42:39;2.45;;;1.05;;
59189;SDS011;50749;51.636;4.948;2022-12-16T15:45:25;4.90;;;1.10;;
59189;SDS011;50749;51.636;4.948;2022-12-16T15:48:19;2.65;;;0.88;;
59189;SDS011;50749;51.636;4.948;2022-12-16T15:54:16;3.95;;;0.80;;
59189;SDS011;50749;51.636;4.948;2022-12-16T15:57:22;3.75;;;0.88;;
59189;SDS011;50749;51.636;4.948;2022-12-16T16:06:01;2.90;;;0.90;;
59189;SDS011;50749;51.636;4.948;2022-12-16T16:08:49;2.08;;;0.82;;
59189;SDS011;50749;51.636;4.948;2022-12-16T16:11:34;2.03;;;0.80;;
59189;SDS011;50749;51.636;4.948;2022-12-16T16:14:19;1.40;;;0.80;;
59189;SDS011;50749;51.636;4.948;2022-12-16T16:17:08;2.53;;;0.80;;
59189;SDS011;50749;51.636;4.948;2022-12-16T16:20:04;1.35;;;0.82;;
59189;SDS011;50749;51.636;4.948;2022-12-16T16:22:49;1.00;;;0.55;;
59189;SDS011;50749;51.636;4.948;2022-12-16T16:25:34;4.13;;;1.10;;
59189;SDS011;50749;51.636;4.948;2022-12-16T16:28:18;2.80;;;1.35;;
59189;SDS011;50749;51.636;4.948;2022-12-16T16:31:03;1.70;;;0.82;;
59189;SDS011;50749;51.636;4.948;2022-12-16T16:33:47;1.52;;;0.80;;
59189;SDS011;50749;51.636;4.948;2022-12-16T16:36:32;2.58;;;1.55;;
59189;SDS011;50749;51.636;4.948;2022-12-16T16:39:16;4.72;;;1.73;;
59189;SDS011;50749;51.636;4.948;2022-12-16T16:42:00;6.43;;;2.05;;
59189;SDS011;50749;51.636;4.948;2022-12-16T16:44:44;5.65;;;1.00;;
59189;SDS011;50749;51.636;4.948;2022-12-16T16:47:29;2.70;;;0.90;;
59189;SDS011;50749;51.636;4.948;2022-12-16T16:52:59;10.57;;;1.83;;
59189;SDS011;50749;51.636;4.948;2022-12-16T16:55:43;4.45;;;1.02;;
59189;SDS011;50749;51.636;4.948;2022-12-16T16:58:28;3.08;;;0.90;;
59189;SDS011;50749;51.636;4.948;2022-12-16T17:01:17;1.83;;;0.70;;
59189;SDS011;50749;51.636;4.948;2022-12-16T17:06:47;2.80;;;0.80;;
59189;SDS011;50749;51.636;4.948;2022-12-16T17:09:32;5.28;;;1.15;;
59189;SDS011;50749;51.636;4.948;2022-12-16T17:12:23;3.17;;;0.97;;
59189;SDS011;50749;51.636;4.948;2022-12-16T17:18:06;5.63;;;1.08;;
59189;SDS011;50749;51.636;4.948;2022-12-16T17:20:52;4.30;;;1.23;;
59189;SDS011;50749;51.636;4.948;2022-12-16T17:23:37;4.15;;;1.38;;
59189;SDS011;50749;51.636;4.948;2022-12-16T17:26:22;3.35;;;1.27;;
59189;SDS011;50749;51.636;4.948;2022-12-16T17:29:23;8.45;;;1.58;;
59189;SDS011;50749;51.636;4.948;2022-12-16T17:32:09;4.88;;;1.42;;
59189;SDS011;50749;51.636;4.948;2022-12-16T17:34:53;5.85;;;1.30;;
59189;SDS011;50749;51.636;4.948;2022-12-16T17:37:38;4.32;;;1.75;;
59189;SDS011;50749;51.636;4.948;2022-12-16T17:40:23;8.13;;;1.92;;
59189;SDS011;50749;51.636;4.948;2022-12-16T17:43:07;3.47;;;1.20;;
59189;SDS011;50749;51.636;4.948;2022-12-16T17:46:10;5.30;;;1.50;;
59189;SDS011;50749;51.636;4.948;2022-12-16T17:48:56;7.40;;;1.77;;
59189;SDS011;50749;51.636;4.948;2022-12-16T17:51:41;4.63;;;1.48;;
59189;SDS011;50749;51.636;4.948;2022-12-16T17:54:27;10.48;;;1.95;;
59189;SDS011;50749;51.636;4.948;2022-12-16T17:57:13;12.60;;;1.80;;
59189;SDS011;50749;51.636;4.948;2022-12-16T17:59:57;8.70;;;2.08;;
59189;SDS011;50749;51.636;4.948;2022-12-16T18:02:42;9.57;;;1.52;;
59189;SDS011;50749;51.636;4.948;2022-12-16T18:05:26;4.90;;;1.77;;
59189;SDS011;50749;51.636;4.948;2022-12-16T18:08:10;7.35;;;2.10;;
59189;SDS011;50749;51.636;4.948;2022-12-16T18:10:55;13.43;;;2.40;;
59189;SDS011;50749;51.636;4.948;2022-12-16T18:13:41;10.10;;;2.05;;
59189;SDS011;50749;51.636;4.948;2022-12-16T18:16:26;4.60;;;1.77;;
59189;SDS011;50749;51.636;4.948;2022-12-16T18:19:11;6.55;;;2.20;;
59189;SDS011;50749;51.636;4.948;2022-12-16T18:21:57;7.03;;;2.38;;
59189;SDS011;50749;51.636;4.948;2022-12-16T18:24:49;6.60;;;2.20;;
59189;SDS011;50749;51.636;4.948;2022-12-16T18:27:34;11.23;;;2.35;;
59189;SDS011;50749;51.636;4.948;2022-12-16T18:30:19;5.22;;;2.10;;
59189;SDS011;50749;51.636;4.948;2022-12-16T18:33:04;6.47;;;2.58;;
59189;SDS011;50749;51.636;4.948;2022-12-16T18:35:48;9.57;;;3.03;;
59189;SDS011;50749;51.636;4.948;2022-12-16T18:38:33;21.20;;;3.47;;
59189;SDS011;50749;51.636;4.948;2022-12-16T18:41:19;19.30;;;2.73;;
59189;SDS011;50749;51.636;4.948;2022-12-16T18:44:05;6.78;;;2.55;;
59189;SDS011;50749;51.636;4.948;2022-12-16T18:47:09;7.20;;;2.45;;